Time;durP1;ratioP1;P1;durP2;ratioP2;P2;SDS_P1;SDS_P2;PMS_P1;PMS_P2;Temp;Humidity;BMP_temperature;BMP_pressure;BME280_temperature;BME280_humidity;BME280_pressure;Samples;Min_cycle;Max_cycle;Signal;HPM_P1;HPM_P2
2021/06/21 00:00:17;;;;;;;6.55;1.30;;;19.20;99.90;;;;;;5001997;28;20511;-79
2021/06/21 00:02:43;;;;;;;7.35;1.63;;;19.20;99.90;;;;;;5010281;28;20524;-79
2021/06/21 00:05:10;;;;;;;7.82;2.65;;;19.00;99.90;;;;;;5002728;28;20116;-77
2021/06/21 00:07:36;;;;;;;10.00;3.17;;;19.00;99.90;;;;;;5002710;28;20030;-78
2021/06/21 00:10:04;;;;;;;6.38;1.38;;;19.00;99.90;;;;;;5008378;28;20028;-79
2021/06/21 00:12:29;;;;;;;7.20;1.95;;;19.00;99.90;;;;;;5000935;28;20473;-79
2021/06/21 00:14:55;;;;;;;4.60;1.30;;;19.00;99.90;;;;;;5024028;28;20044;-79
2021/06/21 00:17:21;;;;;;;4.88;1.25;;;19.10;99.90;;;;;;5010778;28;20041;-78
2021/06/21 00:19:47;;;;;;;3.80;1.17;;;;;;;;;;5004395;28;20304;-78
2021/06/21 00:22:14;;;;;;;3.08;1.05;;;19.00;99.90;;;;;;5008573;28;20044;-79
2021/06/21 00:24:41;;;;;;;4.22;1.35;;;19.00;99.90;;;;;;4992808;28;21308;-79
2021/06/21 00:27:08;;;;;;;5.30;1.50;;;18.90;99.90;;;;;;5006484;28;20054;-81
2021/06/21 00:29:33;;;;;;;7.07;1.63;;;18.90;99.90;;;;;;5016744;28;20033;-80
2021/06/21 00:31:59;;;;;;;4.28;1.10;;;18.90;99.90;;;;;;5017026;28;20038;-80
2021/06/21 00:34:25;;;;;;;4.13;1.30;;;;;;;;;;5015554;28;20033;-81
2021/06/21 00:36:50;;;;;;;5.25;1.25;;;18.90;99.90;;;;;;5009820;28;20062;-78
2021/06/21 00:39:16;;;;;;;2.53;1.10;;;18.80;99.90;;;;;;5001430;28;20046;-78
2021/06/21 00:41:42;;;;;;;7.72;1.60;;;18.90;99.90;;;;;;4997739;28;20064;-80
2021/06/21 00:44:09;;;;;;;5.18;1.23;;;18.90;99.90;;;;;;5010079;28;20045;-80
2021/06/21 00:46:35;;;;;;;5.22;1.23;;;18.90;99.90;;;;;;5003899;28;20019;-77
2021/06/21 00:49:00;;;;;;;4.72;1.17;;;18.80;99.90;;;;;;5004449;28;20109;-79
2021/06/21 00:51:27;;;;;;;6.28;1.52;;;18.80;99.90;;;;;;5012713;28;20570;-80
2021/06/21 00:53:53;;;;;;;6.95;1.92;;;20.60;99.90;;;;;;5013284;28;20030;-78
2021/06/21 00:56:19;;;;;;;5.20;1.20;;;18.80;99.90;;;;;;4996518;28;20105;-79
2021/06/21 00:58:45;;;;;;;3.80;1.20;;;18.80;99.90;;;;;;5014309;28;20129;-79
2021/06/21 01:01:11;;;;;;;5.20;1.25;;;18.80;99.90;;;;;;4993611;28;20030;-79
2021/06/21 01:03:37;;;;;;;7.00;1.42;;;18.80;99.90;;;;;;5012337;28;20577;-81
2021/06/21 01:06:03;;;;;;;8.77;1.85;;;18.90;99.90;;;;;;4995400;28;20041;-80
2021/06/21 01:08:29;;;;;;;5.47;1.48;;;18.80;99.90;;;;;;5001844;28;20061;-79
2021/06/21 01:10:56;;;;;;;3.70;1.10;;;18.70;99.90;;;;;;5014059;28;20061;-79
2021/06/21 01:13:52;;;;;;;2.03;1.02;;;18.80;99.90;;;;;;4998490;28;20570;-79
2021/06/21 01:16:30;;;;;;;6.07;1.67;;;18.70;99.90;;;;;;4997221;28;20422;-78
2021/06/21 01:19:23;;;;;;;4.75;1.45;;;18.80;99.90;;;;;;5012986;28;20172;-80
2021/06/21 01:22:14;;;;;;;8.93;1.50;;;18.60;99.90;;;;;;5009802;28;20065;-79
2021/06/21 01:25:04;;;;;;;5.38;1.27;;;18.60;99.90;;;;;;5007708;28;20026;-79
2021/06/21 01:27:30;;;;;;;3.72;0.98;;;18.70;99.90;;;;;;5017796;28;20041;-79
2021/06/21 01:30:12;;;;;;;3.40;1.20;;;18.70;99.90;;;;;;4999743;28;20030;-79
2021/06/21 01:32:48;;;;;;;6.40;1.38;;;18.70;99.90;;;;;;5012908;28;20026;-79
2021/06/21 01:35:20;;;;;;;5.50;1.30;;;18.60;99.90;;;;;;4998841;28;20177;-79
2021/06/21 01:37:47;;;;;;;6.68;1.25;;;18.60;99.90;;;;;;5015678;28;20029;-79
2021/06/21 01:40:17;;;;;;;4.38;1.70;;;18.20;99.90;;;;;;5015809;28;20048;-77
2021/06/21 01:42:46;;;;;;;6.65;1.35;;;18.60;99.90;;;;;;4999189;28;20033;-80
2021/06/21 01:45:12;;;;;;;5.72;1.75;;;18.60;99.90;;;;;;5017882;28;20022;-79
2021/06/21 01:47:41;;;;;;;1.67;0.90;;;18.60;99.90;;;;;;5009068;28;20033;-81
2021/06/21 01:50:09;;;;;;;3.13;1.58;;;18.50;99.90;;;;;;4995657;28;20501;-78
2021/06/21 01:52:39;;;;;;;6.40;1.60;;;18.50;99.90;;;;;;5013995;28;20026;-79
2021/06/21 01:55:08;;;;;;;8.75;1.90;;;18.50;99.90;;;;;;5009035;28;20864;-79
2021/06/21 01:57:36;;;;;;;8.27;1.20;;;18.50;99.90;;;;;;5014216;28;20049;-80
2021/06/21 02:00:07;;;;;;;6.45;1.50;;;18.40;99.90;;;;;;4998914;28;20357;-80
2021/06/21 02:02:34;;;;;;;3.83;1.33;;;18.30;99.90;;;;;;4998346;28;20030;-78
2021/06/21 02:05:01;;;;;;;6.50;1.20;;;18.50;99.90;;;;;;4999644;28;20080;-80
2021/06/21 02:07:27;;;;;;;5.95;1.30;;;18.30;99.90;;;;;;5012850;28;20036;-79
2021/06/21 02:09:55;;;;;;;7.53;1.75;;;18.30;99.90;;;;;;4998937;28;20026;-79
2021/06/21 02:12:23;;;;;;;5.45;1.40;;;18.30;99.90;;;;;;5005856;28;20116;-80
2021/06/21 02:14:50;;;;;;;5.72;1.30;;;18.40;99.90;;;;;;5006060;28;20407;-80
2021/06/21 02:17:19;;;;;;;8.80;1.75;;;19.60;99.90;;;;;;5012556;28;20538;-81
2021/06/21 02:19:45;;;;;;;6.78;1.67;;;18.30;99.90;;;;;;5004928;28;20068;-78
2021/06/21 02:22:11;;;;;;;3.58;1.40;;;18.30;99.90;;;;;;5018284;28;20022;-78
2021/06/21 02:24:38;;;;;;;7.75;1.63;;;19.50;99.90;;;;;;5016192;28;20034;-79
2021/06/21 02:27:05;;;;;;;4.72;2.13;;;18.20;99.90;;;;;;4999081;28;20026;-80
2021/06/21 02:29:32;;;;;;;3.83;1.67;;;18.10;99.90;;;;;;5011563;28;20514;-78
2021/06/21 02:31:58;;;;;;;8.07;1.90;;;18.10;99.90;;;;;;5003456;28;20036;-81
2021/06/21 02:34:24;;;;;;;8.73;1.38;;;18.00;99.90;;;;;;5019368;28;20464;-81
2021/06/21 02:36:50;;;;;;;5.13;1.63;;;18.10;99.90;;;;;;5013280;28;20121;-78
2021/06/21 02:39:17;;;;;;;7.88;1.60;;;18.10;99.90;;;;;;5001336;28;20034;-79
2021/06/21 02:41:43;;;;;;;3.35;1.52;;;18.00;99.90;;;;;;4997227;28;20547;-79
2021/06/21 02:44:09;;;;;;;4.55;1.40;;;18.20;99.90;;;;;;5014475;28;20034;-80
2021/06/21 02:46:35;;;;;;;5.72;1.50;;;18.20;99.90;;;;;;4998052;28;20030;-78
2021/06/21 02:49:00;;;;;;;14.02;1.60;;;18.20;99.90;;;;;;5013242;28;20045;-80
2021/06/21 02:51:47;;;;;;;8.32;1.58;;;18.20;99.90;;;;;;4999909;28;20030;-80
2021/06/21 02:54:44;;;;;;;5.32;1.60;;;18.20;99.90;;;;;;5002462;28;20030;-81
2021/06/21 02:57:32;;;;;;;5.30;1.52;;;18.20;99.90;;;;;;5009426;28;20037;-79
2021/06/21 02:59:58;;;;;;;8.93;1.40;;;18.20;99.90;;;;;;4995459;28;20034;-81
2021/06/21 03:02:25;;;;;;;7.55;1.48;;;18.20;99.90;;;;;;5016859;28;20495;-77
2021/06/21 03:04:53;;;;;;;7.22;1.90;;;18.10;99.90;;;;;;5012477;28;20385;-76
2021/06/21 03:07:22;;;;;;;7.05;1.60;;;18.00;99.90;;;;;;5014387;28;20587;-77
2021/06/21 03:09:49;;;;;;;4.47;1.42;;;18.00;99.90;;;;;;5000109;28;20430;-77
2021/06/21 03:12:24;;;;;;;4.32;1.48;;;18.00;99.90;;;;;;5012829;28;20112;-80
2021/06/21 03:14:50;;;;;;;7.75;1.80;;;18.00;99.90;;;;;;5002703;28;20438;-78
2021/06/21 03:17:17;;;;;;;7.90;2.00;;;17.90;99.90;;;;;;4991355;28;20125;-79
2021/06/21 03:19:43;;;;;;;4.72;1.33;;;17.90;99.90;;;;;;5003213;28;20108;-77
2021/06/21 03:22:10;;;;;;;5.90;1.13;;;19.40;99.90;;;;;;5022372;28;20120;-77
2021/06/21 03:24:35;;;;;;;5.88;2.05;;;18.80;99.90;;;;;;5009556;28;20053;-76
2021/06/21 03:27:01;;;;;;;4.75;1.40;;;18.10;99.90;;;;;;5011129;28;21050;-78
2021/06/21 03:29:27;;;;;;;4.60;1.40;;;18.10;99.90;;;;;;5018906;28;20064;-77
2021/06/21 03:31:54;;;;;;;6.30;1.35;;;18.10;99.90;;;;;;5026951;28;20431;-77
2021/06/21 03:34:21;;;;;;;5.40;1.63;;;20.00;99.90;;;;;;5007953;28;20034;-78
2021/06/21 03:36:47;;;;;;;4.97;1.50;;;18.00;99.90;;;;;;5022916;28;20026;-78
2021/06/21 03:39:13;;;;;;;10.32;2.55;;;17.90;99.90;;;;;;5024352;28;20066;-80
2021/06/21 03:41:39;;;;;;;5.43;1.65;;;17.80;99.90;;;;;;5027273;28;20045;-79
2021/06/21 03:44:04;;;;;;;6.22;1.65;;;17.80;99.90;;;;;;5023260;28;20045;-77
2021/06/21 03:46:31;;;;;;;5.00;1.80;;;17.80;99.90;;;;;;5025749;28;20503;-79
2021/06/21 03:48:58;;;;;;;8.73;1.98;;;17.90;99.90;;;;;;5014699;28;20057;-78
2021/06/21 03:51:24;;;;;;;4.82;2.33;;;17.90;99.90;;;;;;5028647;28;20041;-80
2021/06/21 03:53:50;;;;;;;4.45;1.48;;;17.80;99.90;;;;;;5009433;28;20026;-79
2021/06/21 03:56:16;;;;;;;6.90;1.60;;;17.80;99.90;;;;;;5008606;28;20176;-78
2021/06/21 03:58:45;;;;;;;8.23;2.58;;;;;;;;;;5003273;28;20046;-78
2021/06/21 04:01:10;;;;;;;6.80;1.58;;;18.00;99.90;;;;;;5022458;28;20077;-78
2021/06/21 04:03:36;;;;;;;6.10;2.10;;;18.00;99.90;;;;;;5021378;28;20037;-79
2021/06/21 04:06:01;;;;;;;9.55;2.13;;;18.00;99.90;;;;;;5018720;28;20321;-79
2021/06/21 04:08:27;;;;;;;3.75;1.50;;;18.00;99.90;;;;;;5016299;28;20053;-81
2021/06/21 04:10:53;;;;;;;4.45;1.30;;;18.00;99.90;;;;;;5012258;28;20100;-80
2021/06/21 04:13:19;;;;;;;5.50;2.00;;;18.00;99.90;;;;;;5006915;28;20053;-78
2021/06/21 04:15:45;;;;;;;8.38;1.50;;;18.00;99.90;;;;;;5019051;28;20072;-78
2021/06/21 04:18:14;;;;;;;6.20;1.58;;;17.90;99.90;;;;;;5009140;28;20045;-79
2021/06/21 04:20:42;;;;;;;5.38;1.63;;;18.00;99.90;;;;;;5009096;28;20492;-78
2021/06/21 04:23:09;;;;;;;4.97;1.50;;;18.00;99.90;;;;;;5008253;28;20556;-79
2021/06/21 04:25:34;;;;;;;6.88;1.33;;;18.00;99.90;;;;;;5015257;28;20079;-78
2021/06/21 04:28:01;;;;;;;3.40;1.27;;;18.00;99.90;;;;;;5009088;28;20026;-80
2021/06/21 04:30:27;;;;;;;4.38;1.65;;;;;;;;;;5018133;28;20604;-77
2021/06/21 04:32:54;;;;;;;4.35;1.40;;;18.00;99.90;;;;;;4995945;28;20038;-77
2021/06/21 04:35:23;;;;;;;7.18;1.67;;;18.20;99.90;;;;;;4998557;28;20033;-78
2021/06/21 04:37:50;;;;;;;4.65;1.45;;;18.20;99.90;;;;;;5017437;28;20499;-78
2021/06/21 04:40:21;;;;;;;8.80;1.75;;;18.40;99.90;;;;;;5019847;28;20481;-78
2021/06/21 04:42:46;;;;;;;7.38;1.38;;;18.30;99.90;;;;;;5009367;28;20040;-76
2021/06/21 04:45:13;;;;;;;5.30;1.52;;;18.30;99.90;;;;;;5006196;28;20086;-81
2021/06/21 04:47:39;;;;;;;5.60;1.63;;;18.30;99.90;;;;;;5026809;28;20391;-78
2021/06/21 04:50:08;;;;;;;6.22;1.75;;;18.50;99.90;;;;;;5024936;28;20026;-78
2021/06/21 04:52:40;;;;;;;5.63;1.70;;;18.30;99.90;;;;;;5023799;28;20029;-79
2021/06/21 04:55:08;;;;;;;5.38;1.38;;;18.40;99.90;;;;;;5003870;28;20474;-78
2021/06/21 04:57:34;;;;;;;7.47;1.50;;;18.40;99.90;;;;;;5015255;28;20080;-77
2021/06/21 05:00:02;;;;;;;5.70;2.33;;;18.40;99.90;;;;;;5003059;28;20041;-79
2021/06/21 05:02:28;;;;;;;7.90;1.70;;;18.30;99.90;;;;;;5005763;28;20022;-80
2021/06/21 05:04:54;;;;;;;5.70;1.70;;;18.30;99.90;;;;;;5017831;28;20036;-77
2021/06/21 05:07:19;;;;;;;15.60;2.30;;;18.90;99.90;;;;;;5019697;28;20022;-78
2021/06/21 05:09:48;;;;;;;3.95;1.67;;;18.50;99.90;;;;;;5013823;28;20403;-78
2021/06/21 05:12:14;;;;;;;6.45;1.90;;;18.50;99.90;;;;;;5023761;28;20033;-78
2021/06/21 05:14:40;;;;;;;6.78;1.60;;;18.60;99.90;;;;;;5006519;28;20036;-79
2021/06/21 05:17:10;;;;;;;6.63;1.90;;;20.80;99.90;;;;;;5004385;28;20034;-78
2021/06/21 05:19:36;;;;;;;4.65;1.50;;;;;;;;;;5006809;28;20029;-79
2021/06/21 05:22:03;;;;;;;5.65;1.58;;;18.40;99.90;;;;;;5003849;28;20113;-79
2021/06/21 05:24:29;;;;;;;6.50;2.03;;;18.40;99.90;;;;;;5024100;28;20506;-79
2021/06/21 05:26:55;;;;;;;4.45;1.75;;;18.40;99.90;;;;;;5008676;28;20025;-78
2021/06/21 05:29:20;;;;;;;6.25;1.48;;;18.70;99.90;;;;;;5005223;28;20034;-79
2021/06/21 05:31:46;;;;;;;4.13;1.15;;;18.70;99.90;;;;;;5003570;28;20038;-79
2021/06/21 05:34:11;;;;;;;8.23;1.85;;;18.70;99.90;;;;;;5004674;28;20021;-79
2021/06/21 05:36:37;;;;;;;4.13;1.45;;;18.80;99.90;;;;;;5005479;28;20488;-81
2021/06/21 05:39:04;;;;;;;4.25;1.80;;;18.80;99.90;;;;;;5003743;28;20037;-79
2021/06/21 05:41:30;;;;;;;7.63;1.85;;;18.90;99.90;;;;;;5008741;28;20048;-79
2021/06/21 05:43:55;;;;;;;3.92;1.55;;;19.00;99.90;;;;;;5003663;28;20294;-81
2021/06/21 05:46:21;;;;;;;3.35;1.30;;;18.90;99.90;;;;;;5001387;28;20030;-79
2021/06/21 05:48:47;;;;;;;5.20;1.48;;;18.90;99.90;;;;;;4998946;28;20682;-79
2021/06/21 05:51:12;;;;;;;3.33;1.60;;;18.90;99.90;;;;;;4998609;28;21524;-79
2021/06/21 05:53:38;;;;;;;9.63;1.73;;;18.90;99.90;;;;;;5019161;28;21600;-77
2021/06/21 05:56:04;;;;;;;3.78;1.38;;;18.90;99.90;;;;;;5001206;28;20099;-80
2021/06/21 05:58:30;;;;;;;8.40;2.58;;;;;;;;;;4999273;28;20022;-80
2021/06/21 06:00:56;;;;;;;5.13;1.60;;;22.00;99.90;;;;;;4998098;28;20030;-76
2021/06/21 06:03:22;;;;;;;3.22;1.50;;;19.10;99.90;;;;;;4999857;28;20030;-82
2021/06/21 06:05:48;;;;;;;6.47;1.73;;;19.00;99.90;;;;;;5017103;28;20100;-79
2021/06/21 06:08:14;;;;;;;6.18;1.75;;;;;;;;;;4998965;28;20026;-78
2021/06/21 06:10:39;;;;;;;4.45;1.60;;;19.00;99.90;;;;;;5002844;28;20037;-77
2021/06/21 06:13:05;;;;;;;9.95;2.63;;;;;;;;;;5011854;28;20033;-80
2021/06/21 06:15:31;;;;;;;8.23;1.95;;;;;;;;;;5020953;28;20464;-82
2021/06/21 06:17:57;;;;;;;7.28;2.00;;;;;;;;;;5020412;28;20042;-78
2021/06/21 06:20:23;;;;;;;5.97;2.10;;;;;;;;;;5007916;28;20022;-78
2021/06/21 06:22:49;;;;;;;9.30;1.85;;;;;;;;;;5022145;28;20064;-79
2021/06/21 06:25:16;;;;;;;4.65;2.10;;;19.20;99.90;;;;;;5023004;28;20638;-79
2021/06/21 06:27:42;;;;;;;4.97;1.98;;;;;;;;;;5028484;28;20036;-78
2021/06/21 06:30:11;;;;;;;8.52;1.73;;;19.30;99.90;;;;;;5005161;28;20854;-79
2021/06/21 06:32:38;;;;;;;4.65;1.83;;;;;;;;;;5008007;28;20037;-78
2021/06/21 06:35:04;;;;;;;5.75;1.90;;;;;;;;;;5025329;28;20022;-80
2021/06/21 06:37:30;;;;;;;5.75;1.80;;;;;;;;;;5027468;28;20188;-79
2021/06/21 06:39:56;;;;;;;6.55;1.83;;;;;;;;;;5032066;28;20026;-80
2021/06/21 06:42:23;;;;;;;11.05;3.50;;;;;;;;;;5032342;28;20455;-81
2021/06/21 06:44:49;;;;;;;5.47;2.10;;;;;;;;;;5017743;28;20053;-79
2021/06/21 06:47:15;;;;;;;3.55;1.80;;;;;;;;;;5036215;28;20034;-79
2021/06/21 06:49:40;;;;;;;7.78;2.97;;;19.40;99.90;;;;;;5037981;28;20523;-80
2021/06/21 06:52:06;;;;;;;4.97;1.98;;;20.40;99.90;;;;;;5014223;28;20033;-80
2021/06/21 06:54:48;;;;;;;6.47;2.22;;;19.60;99.90;;;;;;5028688;28;20053;-79
2021/06/21 06:57:14;;;;;;;7.15;2.10;;;20.20;99.90;;;;;;5022522;28;20030;-79
2021/06/21 06:59:40;;;;;;;5.53;2.28;;;19.70;99.90;;;;;;5023894;28;20041;-78
2021/06/21 07:02:22;;;;;;;4.07;1.88;;;19.80;99.90;;;;;;5017144;28;20033;-79
2021/06/21 07:04:49;;;;;;;8.27;2.30;;;21.40;99.90;;;;;;5012084;28;20030;-79
2021/06/21 07:07:14;;;;;;;4.32;1.88;;;19.90;99.90;;;;;;5011227;28;20031;-79
2021/06/21 07:09:40;;;;;;;5.38;1.88;;;19.90;99.90;;;;;;5007962;28;20033;-77
2021/06/21 07:12:07;;;;;;;5.10;2.63;;;19.80;99.90;;;;;;5021982;28;20037;-78
2021/06/21 07:14:35;;;;;;;6.53;1.98;;;20.00;99.90;;;;;;5004069;28;20045;-80
2021/06/21 07:17:01;;;;;;;4.55;1.83;;;20.10;99.90;;;;;;5022997;28;20030;-80
2021/06/21 07:19:26;;;;;;;6.85;1.90;;;20.00;99.90;;;;;;5020396;28;20044;-79
2021/06/21 07:21:56;;;;;;;5.63;1.70;;;;;;;;;;5010218;28;20033;-79
2021/06/21 07:24:22;;;;;;;8.70;2.17;;;20.20;99.90;;;;;;5022953;28;20046;-79
2021/06/21 07:26:50;;;;;;;3.60;1.55;;;20.30;99.60;;;;;;5021618;28;20033;-77
2021/06/21 07:29:16;;;;;;;6.93;1.63;;;;;;;;;;5009938;28;20030;-81
2021/06/21 07:31:43;;;;;;;7.53;2.00;;;20.40;99.40;;;;;;5014246;28;20045;-79
2021/06/21 07:34:08;;;;;;;3.83;1.95;;;20.40;99.40;;;;;;5012433;28;20120;-80
2021/06/21 07:36:35;;;;;;;4.35;1.90;;;22.30;99.80;;;;;;5022155;28;20025;-80
2021/06/21 07:39:01;;;;;;;5.93;2.00;;;;;;;;;;5006682;28;20097;-80
2021/06/21 07:41:27;;;;;;;4.47;1.70;;;;;;;;;;5017534;28;20036;-81
2021/06/21 07:43:53;;;;;;;6.13;2.03;;;;;;;;;;5005383;28;20100;-80
2021/06/21 07:46:19;;;;;;;3.60;1.75;;;;;;;;;;5024259;28;20030;-79
2021/06/21 07:48:45;;;;;;;6.85;2.35;;;;;;;;;;5018615;28;20034;-81
2021/06/21 07:51:13;;;;;;;3.45;2.22;;;21.20;96.60;;;;;;5008078;28;20033;-80
2021/06/21 07:53:40;;;;;;;5.38;1.90;;;21.30;96.40;;;;;;5009940;28;20387;-80
2021/06/21 07:56:07;;;;;;;4.32;2.08;;;21.30;96.40;;;;;;5007319;28;20040;-79
2021/06/21 07:58:34;;;;;;;5.47;1.77;;;21.30;97.00;;;;;;5028862;28;20033;-76
2021/06/21 08:01:00;;;;;;;3.08;1.92;;;;;;;;;;5002765;28;20037;-78
2021/06/21 08:03:26;;;;;;;5.60;2.25;;;;;;;;;;5023221;28;20053;-76
2021/06/21 08:05:52;;;;;;;5.43;2.08;;;;;;;;;;5006649;28;20026;-79
2021/06/21 08:08:19;;;;;;;4.82;2.10;;;;;;;;;;5023997;28;20037;-76
2021/06/21 08:10:45;;;;;;;5.35;2.38;;;;;;;;;;5011018;28;20109;-77
2021/06/21 08:13:11;;;;;;;4.03;2.22;;;;;;;;;;5006083;28;20030;-79
2021/06/21 08:15:37;;;;;;;4.38;2.13;;;;;;;;;;5010598;28;20042;-76
2021/06/21 08:18:04;;;;;;;4.93;2.13;;;;;;;;;;5027014;28;20408;-80
2021/06/21 08:20:31;;;;;;;4.53;2.42;;;;;;;;;;5030667;28;20047;-80
2021/06/21 08:22:57;;;;;;;3.97;2.67;;;;;;;;;;5026134;28;20026;-81
2021/06/21 08:25:23;;;;;;;9.82;3.58;;;;;;;;;;5026367;28;20174;-80
2021/06/21 08:27:49;;;;;;;6.25;2.30;;;;;;;;;;5024450;28;20107;-80
2021/06/21 08:30:15;;;;;;;4.97;2.10;;;22.20;95.50;;;;;;5016158;28;20029;-80
2021/06/21 08:32:41;;;;;;;3.67;1.70;;;;;;;;;;5011578;28;20113;-78
2021/06/21 08:35:10;;;;;;;2.80;1.88;;;;;;;;;;5031890;28;20122;-82
2021/06/21 08:37:36;;;;;;;3.20;1.60;;;;;;;;;;5010034;28;20468;-80
2021/06/21 08:40:07;;;;;;;8.88;3.65;;;;;;;;;;5011306;28;20037;-80
2021/06/21 08:42:34;;;;;;;4.32;2.00;;;;;;;;;;5028530;28;20467;-81
2021/06/21 08:45:05;;;;;;;5.50;2.00;;;;;;;;;;5028241;28;20065;-79
2021/06/21 08:47:31;;;;;;;4.20;2.20;;;;;;;;;;5027799;28;20034;-81
2021/06/21 08:49:58;;;;;;;4.88;1.85;;;;;;;;;;5031581;28;21450;-80
2021/06/21 08:52:25;;;;;;;8.77;1.95;;;;;;;;;;5027637;28;20062;-82
2021/06/21 08:54:53;;;;;;;4.45;1.77;;;21.70;94.70;;;;;;5029159;28;20022;-79
2021/06/21 08:57:19;;;;;;;2.90;1.88;;;;;;;;;;5027127;28;20041;-82
2021/06/21 08:59:45;;;;;;;5.10;1.77;;;;;;;;;;5009633;28;20033;-80
2021/06/21 09:02:15;;;;;;;2.85;1.83;;;;;;;;;;5030746;28;20582;-81
2021/06/21 09:04:41;;;;;;;4.55;1.90;;;;;;;;;;5015711;28;20094;-79
2021/06/21 09:07:15;;;;;;;3.88;1.88;;;22.80;93.50;;;;;;5009841;28;20030;-81
2021/06/21 09:09:41;;;;;;;2.58;1.85;;;;;;;;;;5006259;28;20022;-80
2021/06/21 09:12:07;;;;;;;5.57;1.67;;;22.70;92.70;;;;;;5025753;28;20659;-80
2021/06/21 09:14:34;;;;;;;5.03;2.25;;;;;;;;;;5024187;28;20029;-82
2021/06/21 09:17:08;;;;;;;3.15;1.85;;;22.30;93.20;;;;;;5018362;28;20034;-81
2021/06/21 09:20:00;;;;;;;2.90;1.50;;;22.40;93.10;;;;;;5022748;28;20113;-81
2021/06/21 09:22:33;;;;;;;4.93;1.77;;;;;;;;;;5010372;28;20048;-79
2021/06/21 09:25:06;;;;;;;4.10;1.80;;;22.50;92.30;;;;;;5029216;28;20022;-82
2021/06/21 09:27:32;;;;;;;3.05;1.73;;;;;;;;;;5026552;28;20109;-81
2021/06/21 09:30:06;;;;;;;5.38;1.63;;;22.60;92.00;;;;;;5022841;28;20119;-80
2021/06/21 09:32:40;;;;;;;2.92;1.70;;;;;;;;;;5029506;28;20030;-81
2021/06/21 09:35:07;;;;;;;3.50;1.65;;;;;;;;;;5027672;28;20101;-79
2021/06/21 09:37:42;;;;;;;3.45;1.50;;;;;;;;;;5011762;28;20026;-81
2021/06/21 09:40:09;;;;;;;6.53;1.92;;;;;;;;;;5008562;28;20026;-79
2021/06/21 09:42:36;;;;;;;2.85;1.58;;;;;;;;;;5012962;28;20045;-78
2021/06/21 09:45:03;;;;;;;2.65;1.65;;;23.10;91.00;;;;;;5013846;28;20156;-82
2021/06/21 09:47:35;;;;;;;3.65;1.60;;;23.20;91.00;;;;;;5015891;28;20025;-82
2021/06/21 09:50:04;;;;;;;4.68;1.73;;;;;;;;;;5013207;28;20033;-79
2021/06/21 09:52:33;;;;;;;2.73;1.50;;;;;;;;;;5036282;28;20033;-80
2021/06/21 09:55:08;;;;;;;4.67;2.13;;;;;;;;;;5009249;28;20109;-81
2021/06/21 09:57:34;;;;;;;4.18;1.60;;;;;;;;;;5011905;28;20172;-82
2021/06/21 10:00:01;;;;;;;4.28;1.70;;;;;;;;;;5021613;28;20030;-79
2021/06/21 10:02:28;;;;;;;3.42;1.58;;;;;;;;;;5010907;28;20325;-79
2021/06/21 10:04:54;;;;;;;3.50;1.42;;;;;;;;;;5026616;28;20030;-80
2021/06/21 10:07:37;;;;;;;5.10;1.80;;;;;;;;;;5018425;28;20038;-77
2021/06/21 10:10:03;;;;;;;2.47;1.50;;;;;;;;;;5006237;28;20030;-79
2021/06/21 10:12:29;;;;;;;2.42;1.50;;;;;;;;;;5024355;28;20038;-78
2021/06/21 10:14:56;;;;;;;2.78;1.50;;;24.10;86.50;;;;;;5027359;28;20061;-78
2021/06/21 10:17:22;;;;;;;4.45;1.80;;;;;;;;;;5005573;28;20042;-79
2021/06/21 10:19:48;;;;;;;4.43;1.50;;;;;;;;;;5021079;28;20026;-79
2021/06/21 10:22:15;;;;;;;3.22;1.58;;;;;;;;;;5020678;28;20136;-80
2021/06/21 10:24:41;;;;;;;2.15;1.38;;;;;;;;;;5022515;28;20475;-80
2021/06/21 10:27:07;;;;;;;4.00;1.75;;;;;;;;;;5018712;28;20033;-80
2021/06/21 10:29:34;;;;;;;19.75;7.68;;;24.30;83.70;;;;;;5019751;28;20041;-80
2021/06/21 10:32:05;;;;;;;24.73;10.38;;;24.50;83.90;;;;;;5019142;28;20026;-82
2021/06/21 10:34:32;;;;;;;3.33;1.55;;;;;;;;;;5009061;28;20095;-81
2021/06/21 10:36:58;;;;;;;3.92;1.70;;;24.80;82.30;;;;;;5022258;28;20030;-80
2021/06/21 10:39:33;;;;;;;3.80;1.38;;;25.00;81.10;;;;;;5024832;28;20038;-81
2021/06/21 10:42:06;;;;;;;2.55;1.60;;;;;;;;;;5016836;28;20034;-80
2021/06/21 10:44:41;;;;;;;3.47;1.60;;;24.70;81.90;;;;;;5020481;28;20692;-77
2021/06/21 10:47:27;;;;;;;3.70;1.80;;;24.80;80.80;;;;;;5002517;28;20027;-78
2021/06/21 10:49:59;;;;;;;3.05;1.40;;;25.00;79.80;;;;;;5008842;28;20037;-81
2021/06/21 10:52:47;;;;;;;3.03;1.50;;;25.20;80.30;;;;;;5015036;28;20029;-79
2021/06/21 10:57:51;;;;;;;4.68;1.60;;;;;;;;;;5014587;28;20033;-79
2021/06/21 11:00:22;;;;;;;3.75;1.45;;;25.90;76.70;;;;;;5027903;28;20034;-80
2021/06/21 11:02:48;;;;;;;3.13;1.17;;;;;;;;;;5002684;28;20029;-80
2021/06/21 11:05:32;;;;;;;2.15;1.20;;;26.40;74.50;;;;;;5020415;28;20165;-80
2021/06/21 11:08:22;;;;;;;2.63;1.48;;;26.50;73.10;;;;;;5020022;28;20030;-80
2021/06/21 11:10:52;;;;;;;3.03;1.27;;;;;;;;;;5008752;28;20431;-80
2021/06/21 11:13:44;;;;;;;2.40;1.30;;;26.40;73.60;;;;;;5007312;28;20030;-79
2021/06/21 11:16:24;;;;;;;3.05;1.42;;;26.50;73.70;;;;;;5021557;28;20141;-79
2021/06/21 11:19:13;;;;;;;3.35;1.70;;;26.70;71.30;;;;;;5010113;28;20025;-79
2021/06/21 11:21:47;;;;;;;2.15;1.40;;;;;;;;;;5004425;28;20397;-79
2021/06/21 11:24:35;;;;;;;2.30;1.23;;;26.20;72.20;;;;;;5001796;28;20029;-80
2021/06/21 11:27:06;;;;;;;1.95;1.20;;;26.10;73.20;;;;;;5013874;28;20044;-76
2021/06/21 11:29:37;;;;;;;2.10;1.20;;;26.10;73.60;;;;;;5002888;28;20033;-78
2021/06/21 11:32:05;;;;;;;4.05;1.88;;;25.80;73.60;;;;;;4998906;28;20053;-78
2021/06/21 11:35:00;;;;;;;3.28;1.30;;;25.50;75.00;;;;;;5018084;28;20033;-78
2021/06/21 11:37:46;;;;;;;2.58;1.27;;;25.70;74.80;;;;;;5016905;28;20527;-77
2021/06/21 11:40:16;;;;;;;2.95;1.20;;;25.70;75.00;;;;;;4997889;28;20163;-80
2021/06/21 11:42:49;;;;;;;4.20;1.40;;;25.80;74.60;;;;;;4997179;28;22772;-78
2021/06/21 11:45:49;;;;;;;2.25;1.40;;;25.80;75.30;;;;;;5005149;28;20106;-80
2021/06/21 11:48:37;;;;;;;1.70;1.15;;;25.90;74.40;;;;;;5025641;28;20022;-78
2021/06/21 11:51:14;;;;;;;3.17;1.35;;;26.10;73.10;;;;;;5017008;28;20034;-78
2021/06/21 11:53:46;;;;;;;3.03;1.48;;;26.00;73.10;;;;;;5007761;28;20452;-79
2021/06/21 11:56:30;;;;;;;5.90;1.92;;;25.90;74.10;;;;;;5020987;28;20089;-79
2021/06/21 11:58:57;;;;;;;3.50;1.42;;;26.30;71.80;;;;;;5000913;28;20034;-79
2021/06/21 12:01:27;;;;;;;2.88;1.20;;;26.50;70.80;;;;;;5006497;28;20038;-77
2021/06/21 12:04:01;;;;;;;2.25;1.10;;;26.80;71.80;;;;;;5016846;28;20030;-79
2021/06/21 12:06:29;;;;;;;1.90;1.10;;;26.80;70.20;;;;;;5003479;28;20022;-78
2021/06/21 12:08:55;;;;;;;1.98;1.00;;;;;;;;;;5011599;28;20034;-77
2021/06/21 12:11:26;;;;;;;5.68;1.40;;;26.80;70.30;;;;;;5010820;28;20038;-79
2021/06/21 12:13:59;;;;;;;2.20;1.23;;;26.80;69.10;;;;;;4998518;28;20117;-79
2021/06/21 12:16:26;;;;;;;2.75;1.40;;;26.60;70.40;;;;;;4996980;28;20029;-80
2021/06/21 12:18:53;;;;;;;3.78;1.00;;;;;;;;;;4997077;28;20028;-78
2021/06/21 12:21:40;;;;;;;3.88;1.50;;;26.80;69.30;;;;;;5015616;28;20061;-78
2021/06/21 12:24:25;;;;;;;2.72;1.30;;;26.70;70.60;;;;;;4998454;28;20034;-79
2021/06/21 12:26:54;;;;;;;2.92;1.20;;;26.70;68.70;;;;;;5013688;28;20036;-78
2021/06/21 12:29:35;;;;;;;2.83;1.40;;;26.80;68.40;;;;;;5002940;28;20804;-79
2021/06/21 12:32:04;;;;;;;2.70;1.20;;;26.80;68.70;;;;;;5014530;28;20817;-76
2021/06/21 12:34:48;;;;;;;2.38;1.30;;;26.80;68.40;;;;;;4996506;28;20612;-77
2021/06/21 12:37:26;;;;;;;7.22;1.45;;;26.70;69.00;;;;;;5015951;28;20026;-79
2021/06/21 12:39:55;;;;;;;3.25;1.20;;;26.90;68.80;;;;;;5015518;28;20034;-79
2021/06/21 12:42:22;;;;;;;6.70;2.00;;;27.00;67.70;;;;;;5009159;28;20044;-78
2021/06/21 12:44:48;;;;;;;3.47;1.00;;;;;;;;;;4996617;28;20026;-78
2021/06/21 12:47:19;;;;;;;2.67;1.00;;;27.30;66.30;;;;;;5008918;28;20026;-79
2021/06/21 12:49:45;;;;;;;3.17;1.40;;;28.70;67.00;;;;;;5017132;28;20038;-77
2021/06/21 12:52:12;;;;;;;3.00;1.10;;;;;;;;;;5001771;28;20025;-79
2021/06/21 12:54:38;;;;;;;2.55;1.17;;;;;;;;;;5015766;28;20030;-79
2021/06/21 12:57:04;;;;;;;4.05;1.52;;;27.50;65.40;;;;;;5003304;28;20029;-80
2021/06/21 12:59:38;;;;;;;3.13;1.60;;;27.30;65.80;;;;;;5000425;28;20030;-78
2021/06/21 13:02:05;;;;;;;3.22;1.30;;;27.20;65.00;;;;;;4994899;28;20033;-79
2021/06/21 13:04:32;;;;;;;2.25;1.30;;;;;;;;;;5007250;28;20037;-77
2021/06/21 13:07:05;;;;;;;1.65;0.98;;;27.20;66.10;;;;;;5010847;28;20030;-77
2021/06/21 13:09:45;;;;;;;2.47;1.25;;;27.50;65.80;;;;;;5005272;28;20092;-79
2021/06/21 13:12:28;;;;;;;3.38;1.40;;;27.90;67.40;;;;;;5017016;28;20041;-79
2021/06/21 13:15:15;;;;;;;3.50;1.38;;;28.20;63.30;;;;;;4994120;28;20123;-78
2021/06/21 13:17:47;;;;;;;3.15;1.70;;;28.30;60.50;;;;;;4997832;28;20038;-77
2021/06/21 13:20:15;;;;;;;1.88;1.17;;;28.40;59.40;;;;;;5012433;28;20470;-80
2021/06/21 13:22:44;;;;;;;2.42;0.98;;;28.50;59.60;;;;;;5018179;28;20068;-80
2021/06/21 13:25:19;;;;;;;4.17;2.50;;;28.70;60.10;;;;;;5002664;28;20117;-79
2021/06/21 13:27:56;;;;;;;5.25;1.25;;;28.40;58.80;;;;;;5001312;28;20487;-78